Aviation Digital Data Service (ADDS)

Output produced by METARs form (2336 UTC 29 May 2020)
found at http://www.aviationweather.gov/metar/data/
 
Forecast for: EDDK (KOELN/BONN , DE)
Text: TAF EDDK 292300Z 3000/3106 10004KT CAVOK
Forecast period: 0000 to 0700 UTC 30 May 2020
Forecast type: FROM: standard forecast or significant change
Winds: from the E (100 degrees) at 5 MPH (4 knots; 2.1 m/s)
Visibility: 6 or more miles 10+ km)
Ceiling: unknown
Clouds: missing
Weather: NSW  (no significant weather)
Text: BECMG 3007/3010 07009KT
Forecast period: 0700 to 1900 UTC 30 May 2020
Forecast type: BECOMING: Conditions expected to become as follows by 1000 UTC 30 May 2020
Winds: from the ENE (70 degrees) at 10 MPH (9 knots; 4.6 m/s)
Visibility: 6 or more miles 10+ km)
Ceiling: unknown
Clouds: missing
Weather: NSW  (no significant weather)
Text: BECMG 3019/3022 09004KT
Forecast period: 1900 UTC 30 May 2020 to 0600 UTC 31 May 2020
Forecast type: BECOMING: Conditions expected to become as follows by 2200 UTC 30 May 2020
Winds: from the E (90 degrees) at 5 MPH (4 knots; 2.1 m/s)
Visibility: 6 or more miles 10+ km)
Ceiling: unknown
Clouds: missing
Weather: NSW  (no significant weather)